sensor_id;sensor_type;location;lat;lon;timestamp;P1;durP1;ratioP1;P2;durP2;ratioP2
27977;SDS011;15314;49.248;6.968;2023-03-23T00:00:40;7.20;;;6.80;;
27977;SDS011;15314;49.248;6.968;2023-03-23T00:01:41;7.30;;;6.90;;
27977;SDS011;15314;49.248;6.968;2023-03-23T00:02:42;7.80;;;7.30;;
27977;SDS011;15314;49.248;6.968;2023-03-23T00:03:43;6.63;;;6.32;;
27977;SDS011;15314;49.248;6.968;2023-03-23T00:04:44;7.05;;;6.65;;
27977;SDS011;15314;49.248;6.968;2023-03-23T00:05:45;6.43;;;6.13;;
27977;SDS011;15314;49.248;6.968;2023-03-23T00:06:50;7.70;;;7.20;;
27977;SDS011;15314;49.248;6.968;2023-03-23T00:07:51;7.45;;;6.72;;
27977;SDS011;15314;49.248;6.968;2023-03-23T00:08:53;6.93;;;6.63;;
27977;SDS011;15314;49.248;6.968;2023-03-23T00:09:59;7.60;;;7.20;;
27977;SDS011;15314;49.248;6.968;2023-03-23T00:11:02;7.63;;;7.03;;
27977;SDS011;15314;49.248;6.968;2023-03-23T00:12:04;6.63;;;6.30;;
27977;SDS011;15314;49.248;6.968;2023-03-23T00:13:06;6.80;;;6.50;;
27977;SDS011;15314;49.248;6.968;2023-03-23T00:14:08;7.05;;;6.60;;
27977;SDS011;15314;49.248;6.968;2023-03-23T00:15:13;6.68;;;6.35;;
27977;SDS011;15314;49.248;6.968;2023-03-23T00:16:17;6.35;;;6.05;;
27977;SDS011;15314;49.248;6.968;2023-03-23T00:17:20;6.50;;;6.15;;
27977;SDS011;15314;49.248;6.968;2023-03-23T00:18:20;6.93;;;6.53;;
27977;SDS011;15314;49.248;6.968;2023-03-23T00:19:22;6.90;;;6.60;;
27977;SDS011;15314;49.248;6.968;2023-03-23T00:20:23;7.28;;;6.88;;
27977;SDS011;15314;49.248;6.968;2023-03-23T00:21:31;6.72;;;6.20;;
27977;SDS011;15314;49.248;6.968;2023-03-23T00:22:34;6.95;;;6.65;;
27977;SDS011;15314;49.248;6.968;2023-03-23T00:23:40;7.60;;;7.10;;
27977;SDS011;15314;49.248;6.968;2023-03-23T00:24:52;6.78;;;6.47;;
27977;SDS011;15314;49.248;6.968;2023-03-23T00:25:53;6.45;;;6.20;;
27977;SDS011;15314;49.248;6.968;2023-03-23T00:26:59;7.15;;;6.78;;
27977;SDS011;15314;49.248;6.968;2023-03-23T00:28:03;6.47;;;6.18;;
27977;SDS011;15314;49.248;6.968;2023-03-23T00:29:04;6.88;;;6.47;;
27977;SDS011;15314;49.248;6.968;2023-03-23T00:30:07;6.90;;;6.60;;
27977;SDS011;15314;49.248;6.968;2023-03-23T00:31:09;7.28;;;6.78;;
27977;SDS011;15314;49.248;6.968;2023-03-23T00:32:10;6.90;;;6.50;;
27977;SDS011;15314;49.248;6.968;2023-03-23T00:33:12;6.40;;;6.10;;
27977;SDS011;15314;49.248;6.968;2023-03-23T00:34:14;7.03;;;6.63;;
27977;SDS011;15314;49.248;6.968;2023-03-23T00:35:18;6.35;;;6.05;;
27977;SDS011;15314;49.248;6.968;2023-03-23T00:36:19;7.32;;;6.82;;
27977;SDS011;15314;49.248;6.968;2023-03-23T00:37:23;7.43;;;6.88;;
27977;SDS011;15314;49.248;6.968;2023-03-23T00:38:24;7.50;;;7.10;;
27977;SDS011;15314;49.248;6.968;2023-03-23T00:39:26;7.00;;;6.70;;
27977;SDS011;15314;49.248;6.968;2023-03-23T00:40:27;7.50;;;6.88;;
27977;SDS011;15314;49.248;6.968;2023-03-23T00:41:28;6.82;;;6.53;;
27977;SDS011;15314;49.248;6.968;2023-03-23T00:42:33;7.07;;;6.57;;
27977;SDS011;15314;49.248;6.968;2023-03-23T00:43:37;6.90;;;6.50;;
27977;SDS011;15314;49.248;6.968;2023-03-23T00:44:39;7.38;;;6.97;;
27977;SDS011;15314;49.248;6.968;2023-03-23T00:45:39;7.22;;;6.82;;
27977;SDS011;15314;49.248;6.968;2023-03-23T00:46:40;6.90;;;6.60;;
27977;SDS011;15314;49.248;6.968;2023-03-23T00:47:44;6.97;;;6.47;;
27977;SDS011;15314;49.248;6.968;2023-03-23T00:48:46;6.60;;;6.30;;
27977;SDS011;15314;49.248;6.968;2023-03-23T00:49:47;7.07;;;6.45;;
27977;SDS011;15314;49.248;6.968;2023-03-23T00:50:48;6.80;;;6.50;;
27977;SDS011;15314;49.248;6.968;2023-03-23T00:51:50;6.88;;;6.57;;
27977;SDS011;15314;49.248;6.968;2023-03-23T00:52:52;6.88;;;6.45;;
27977;SDS011;15314;49.248;6.968;2023-03-23T00:53:56;6.97;;;6.57;;
27977;SDS011;15314;49.248;6.968;2023-03-23T00:54:57;7.45;;;6.88;;
27977;SDS011;15314;49.248;6.968;2023-03-23T00:55:58;6.95;;;6.55;;
27977;SDS011;15314;49.248;6.968;2023-03-23T00:56:59;6.90;;;6.60;;
27977;SDS011;15314;49.248;6.968;2023-03-23T00:58:00;7.03;;;6.72;;
27977;SDS011;15314;49.248;6.968;2023-03-23T00:59:01;6.55;;;6.32;;
27977;SDS011;15314;49.248;6.968;2023-03-23T01:00:03;6.60;;;6.30;;
27977;SDS011;15314;49.248;6.968;2023-03-23T01:01:09;6.57;;;6.22;;
27977;SDS011;15314;49.248;6.968;2023-03-23T01:02:10;6.70;;;6.30;;
27977;SDS011;15314;49.248;6.968;2023-03-23T01:03:11;7.15;;;6.75;;
27977;SDS011;15314;49.248;6.968;2023-03-23T01:04:18;7.05;;;6.65;;
27977;SDS011;15314;49.248;6.968;2023-03-23T01:05:20;6.97;;;6.50;;
27977;SDS011;15314;49.248;6.968;2023-03-23T01:06:21;7.10;;;6.72;;
27977;SDS011;15314;49.248;6.968;2023-03-23T01:07:21;6.95;;;6.60;;
27977;SDS011;15314;49.248;6.968;2023-03-23T01:08:23;6.50;;;6.20;;
27977;SDS011;15314;49.248;6.968;2023-03-23T01:09:26;7.13;;;6.78;;
27977;SDS011;15314;49.248;6.968;2023-03-23T01:10:27;6.63;;;6.32;;
27977;SDS011;15314;49.248;6.968;2023-03-23T01:11:28;6.93;;;6.57;;
27977;SDS011;15314;49.248;6.968;2023-03-23T01:12:29;6.82;;;6.50;;
27977;SDS011;15314;49.248;6.968;2023-03-23T01:13:30;6.97;;;6.57;;
27977;SDS011;15314;49.248;6.968;2023-03-23T01:14:30;6.97;;;6.57;;
27977;SDS011;15314;49.248;6.968;2023-03-23T01:15:31;6.97;;;6.60;;
27977;SDS011;15314;49.248;6.968;2023-03-23T01:16:32;6.05;;;5.65;;
27977;SDS011;15314;49.248;6.968;2023-03-23T01:17:33;6.90;;;6.40;;
27977;SDS011;15314;49.248;6.968;2023-03-23T01:18:34;6.60;;;6.30;;
27977;SDS011;15314;49.248;6.968;2023-03-23T01:19:36;6.85;;;6.50;;
27977;SDS011;15314;49.248;6.968;2023-03-23T01:20:37;6.40;;;6.10;;
27977;SDS011;15314;49.248;6.968;2023-03-23T01:21:39;6.97;;;6.53;;
27977;SDS011;15314;49.248;6.968;2023-03-23T01:22:39;6.47;;;6.07;;
27977;SDS011;15314;49.248;6.968;2023-03-23T01:23:41;6.90;;;6.50;;
27977;SDS011;15314;49.248;6.968;2023-03-23T01:24:42;6.78;;;6.30;;
27977;SDS011;15314;49.248;6.968;2023-03-23T01:25:43;6.75;;;6.35;;
27977;SDS011;15314;49.248;6.968;2023-03-23T01:26:45;6.80;;;6.40;;
27977;SDS011;15314;49.248;6.968;2023-03-23T01:27:47;6.72;;;6.43;;
27977;SDS011;15314;49.248;6.968;2023-03-23T01:28:47;6.45;;;6.15;;
27977;SDS011;15314;49.248;6.968;2023-03-23T01:29:49;6.70;;;6.40;;
27977;SDS011;15314;49.248;6.968;2023-03-23T01:30:50;7.13;;;6.57;;
27977;SDS011;15314;49.248;6.968;2023-03-23T01:31:51;6.65;;;6.35;;
27977;SDS011;15314;49.248;6.968;2023-03-23T01:32:52;7.22;;;6.47;;
27977;SDS011;15314;49.248;6.968;2023-03-23T01:33:54;7.22;;;6.53;;
27977;SDS011;15314;49.248;6.968;2023-03-23T01:34:56;7.15;;;6.63;;
27977;SDS011;15314;49.248;6.968;2023-03-23T01:35:57;7.00;;;6.70;;
27977;SDS011;15314;49.248;6.968;2023-03-23T01:37:02;7.05;;;6.40;;
27977;SDS011;15314;49.248;6.968;2023-03-23T01:38:02;7.03;;;6.72;;
27977;SDS011;15314;49.248;6.968;2023-03-23T01:39:04;7.18;;;6.78;;
27977;SDS011;15314;49.248;6.968;2023-03-23T01:40:06;7.40;;;7.00;;
27977;SDS011;15314;49.248;6.968;2023-03-23T01:41:07;6.97;;;6.68;;
27977;SDS011;15314;49.248;6.968;2023-03-23T01:42:08;6.95;;;6.60;;
27977;SDS011;15314;49.248;6.968;2023-03-23T01:43:13;7.10;;;6.75;;
27977;SDS011;15314;49.248;6.968;2023-03-23T01:46:20;7.30;;;6.85;;
27977;SDS011;15314;49.248;6.968;2023-03-23T01:47:22;7.15;;;6.80;;
27977;SDS011;15314;49.248;6.968;2023-03-23T01:48:27;6.78;;;6.47;;
27977;SDS011;15314;49.248;6.968;2023-03-23T01:49:33;6.95;;;6.65;;
27977;SDS011;15314;49.248;6.968;2023-03-23T01:50:40;7.13;;;6.72;;
27977;SDS011;15314;49.248;6.968;2023-03-23T01:51:56;7.47;;;7.07;;
27977;SDS011;15314;49.248;6.968;2023-03-23T01:53:00;7.00;;;6.60;;
27977;SDS011;15314;49.248;6.968;2023-03-23T01:54:04;7.70;;;7.07;;
27977;SDS011;15314;49.248;6.968;2023-03-23T01:55:07;7.13;;;6.72;;
27977;SDS011;15314;49.248;6.968;2023-03-23T01:56:08;7.15;;;6.82;;
27977;SDS011;15314;49.248;6.968;2023-03-23T01:57:12;6.72;;;6.43;;
27977;SDS011;15314;49.248;6.968;2023-03-23T01:58:17;7.10;;;6.70;;
27977;SDS011;15314;49.248;6.968;2023-03-23T01:59:21;7.40;;;7.00;;
27977;SDS011;15314;49.248;6.968;2023-03-23T02:00:24;6.72;;;6.32;;
27977;SDS011;15314;49.248;6.968;2023-03-23T02:01:26;7.22;;;6.82;;
27977;SDS011;15314;49.248;6.968;2023-03-23T02:02:27;7.32;;;6.82;;
27977;SDS011;15314;49.248;6.968;2023-03-23T02:03:28;6.57;;;6.28;;
27977;SDS011;15314;49.248;6.968;2023-03-23T02:04:31;7.10;;;6.70;;
27977;SDS011;15314;49.248;6.968;2023-03-23T02:05:36;7.10;;;6.70;;
27977;SDS011;15314;49.248;6.968;2023-03-23T02:06:39;7.10;;;6.70;;
27977;SDS011;15314;49.248;6.968;2023-03-23T02:07:40;7.07;;;6.75;;
27977;SDS011;15314;49.248;6.968;2023-03-23T02:08:42;6.47;;;6.18;;
27977;SDS011;15314;49.248;6.968;2023-03-23T02:09:44;7.07;;;6.70;;
27977;SDS011;15314;49.248;6.968;2023-03-23T02:10:45;6.95;;;6.65;;
27977;SDS011;15314;49.248;6.968;2023-03-23T02:11:46;7.38;;;6.88;;
27977;SDS011;15314;49.248;6.968;2023-03-23T02:12:49;7.47;;;7.07;;
27977;SDS011;15314;49.248;6.968;2023-03-23T02:13:50;7.28;;;6.80;;
27977;SDS011;15314;49.248;6.968;2023-03-23T02:14:51;7.03;;;6.72;;
27977;SDS011;15314;49.248;6.968;2023-03-23T02:18:22;7.32;;;6.82;;
27977;SDS011;15314;49.248;6.968;2023-03-23T02:24:28;7.60;;;7.00;;
27977;SDS011;15314;49.248;6.968;2023-03-23T02:33:47;6.78;;;6.47;;
27977;SDS011;15314;49.248;6.968;2023-03-23T02:35:02;7.05;;;6.55;;
27977;SDS011;15314;49.248;6.968;2023-03-23T02:37:48;6.65;;;6.35;;
27977;SDS011;15314;49.248;6.968;2023-03-23T02:40:39;7.27;;;6.77;;
27977;SDS011;15314;49.248;6.968;2023-03-23T02:41:52;7.50;;;6.85;;
27977;SDS011;15314;49.248;6.968;2023-03-23T02:42:57;7.47;;;6.97;;
27977;SDS011;15314;49.248;6.968;2023-03-23T02:43:59;7.35;;;6.95;;
27977;SDS011;15314;49.248;6.968;2023-03-23T02:45:03;7.35;;;6.85;;
27977;SDS011;15314;49.248;6.968;2023-03-23T02:46:08;7.55;;;6.95;;
27977;SDS011;15314;49.248;6.968;2023-03-23T02:47:12;7.78;;;7.18;;
27977;SDS011;15314;49.248;6.968;2023-03-23T02:48:18;7.47;;;7.03;;
27977;SDS011;15314;49.248;6.968;2023-03-23T02:49:22;7.82;;;7.22;;
27977;SDS011;15314;49.248;6.968;2023-03-23T02:50:26;7.85;;;7.45;;
27977;SDS011;15314;49.248;6.968;2023-03-23T02:51:30;7.70;;;7.22;;
27977;SDS011;15314;49.248;6.968;2023-03-23T02:52:32;7.38;;;6.97;;
27977;SDS011;15314;49.248;6.968;2023-03-23T02:53:36;7.22;;;6.65;;
27977;SDS011;15314;49.248;6.968;2023-03-23T02:54:41;7.20;;;6.80;;
27977;SDS011;15314;49.248;6.968;2023-03-23T02:55:44;7.32;;;6.93;;
27977;SDS011;15314;49.248;6.968;2023-03-23T02:56:45;7.30;;;6.90;;
27977;SDS011;15314;49.248;6.968;2023-03-23T02:57:48;7.00;;;6.60;;
27977;SDS011;15314;49.248;6.968;2023-03-23T02:58:52;6.60;;;6.30;;
27977;SDS011;15314;49.248;6.968;2023-03-23T02:59:53;6.70;;;6.30;;
27977;SDS011;15314;49.248;6.968;2023-03-23T03:00:54;7.13;;;6.72;;
27977;SDS011;15314;49.248;6.968;2023-03-23T03:03:19;6.88;;;6.57;;
27977;SDS011;15314;49.248;6.968;2023-03-23T03:04:24;6.95;;;6.65;;
27977;SDS011;15314;49.248;6.968;2023-03-23T03:06:36;7.70;;;7.30;;
27977;SDS011;15314;49.248;6.968;2023-03-23T03:09:14;7.70;;;7.13;;
27977;SDS011;15314;49.248;6.968;2023-03-23T03:16:20;8.23;;;7.65;;
27977;SDS011;15314;49.248;6.968;2023-03-23T03:17:26;9.18;;;7.60;;
27977;SDS011;15314;49.248;6.968;2023-03-23T03:18:34;8.10;;;7.60;;
27977;SDS011;15314;49.248;6.968;2023-03-23T03:19:49;7.95;;;7.35;;
27977;SDS011;15314;49.248;6.968;2023-03-23T03:20:54;7.75;;;7.20;;
27977;SDS011;15314;49.248;6.968;2023-03-23T03:22:02;8.10;;;7.50;;
27977;SDS011;15314;49.248;6.968;2023-03-23T03:23:04;8.13;;;7.53;;
27977;SDS011;15314;49.248;6.968;2023-03-23T03:24:10;8.55;;;7.80;;
27977;SDS011;15314;49.248;6.968;2023-03-23T03:25:16;7.57;;;7.18;;
27977;SDS011;15314;49.248;6.968;2023-03-23T03:26:18;7.78;;;7.28;;
27977;SDS011;15314;49.248;6.968;2023-03-23T03:27:21;8.13;;;7.70;;
27977;SDS011;15314;49.248;6.968;2023-03-23T03:28:24;8.38;;;7.80;;
27977;SDS011;15314;49.248;6.968;2023-03-23T03:29:28;7.75;;;7.35;;
27977;SDS011;15314;49.248;6.968;2023-03-23T03:30:33;7.57;;;6.95;;
27977;SDS011;15314;49.248;6.968;2023-03-23T03:31:38;7.65;;;7.25;;
27977;SDS011;15314;49.248;6.968;2023-03-23T03:32:47;6.95;;;6.65;;
27977;SDS011;15314;49.248;6.968;2023-03-23T03:33:53;7.47;;;7.07;;
27977;SDS011;15314;49.248;6.968;2023-03-23T03:34:54;7.40;;;7.10;;
27977;SDS011;15314;49.248;6.968;2023-03-23T03:35:55;7.53;;;7.13;;
27977;SDS011;15314;49.248;6.968;2023-03-23T03:36:57;7.45;;;7.05;;
27977;SDS011;15314;49.248;6.968;2023-03-23T03:38:04;7.30;;;6.90;;
27977;SDS011;15314;49.248;6.968;2023-03-23T03:39:08;7.50;;;7.10;;
27977;SDS011;15314;49.248;6.968;2023-03-23T03:40:11;7.10;;;6.70;;
27977;SDS011;15314;49.248;6.968;2023-03-23T03:41:14;7.50;;;7.10;;
27977;SDS011;15314;49.248;6.968;2023-03-23T03:42:15;7.35;;;6.93;;
27977;SDS011;15314;49.248;6.968;2023-03-23T03:43:19;7.20;;;6.70;;
27977;SDS011;15314;49.248;6.968;2023-03-23T03:44:20;7.20;;;6.85;;
27977;SDS011;15314;49.248;6.968;2023-03-23T03:45:21;7.65;;;7.15;;
27977;SDS011;15314;49.248;6.968;2023-03-23T03:46:22;7.40;;;6.90;;
27977;SDS011;15314;49.248;6.968;2023-03-23T03:47:26;7.00;;;6.63;;
27977;SDS011;15314;49.248;6.968;2023-03-23T03:48:27;7.38;;;6.97;;
27977;SDS011;15314;49.248;6.968;2023-03-23T03:49:28;7.25;;;6.80;;
27977;SDS011;15314;49.248;6.968;2023-03-23T03:50:29;6.85;;;6.45;;
27977;SDS011;15314;49.248;6.968;2023-03-23T03:51:30;7.43;;;6.70;;
27977;SDS011;15314;49.248;6.968;2023-03-23T03:52:31;7.70;;;7.07;;
27977;SDS011;15314;49.248;6.968;2023-03-23T03:53:32;7.47;;;6.97;;
27977;SDS011;15314;49.248;6.968;2023-03-23T03:54:32;7.38;;;6.88;;
27977;SDS011;15314;49.248;6.968;2023-03-23T03:55:33;7.15;;;6.75;;
27977;SDS011;15314;49.248;6.968;2023-03-23T03:56:36;7.22;;;6.82;;
27977;SDS011;15314;49.248;6.968;2023-03-23T03:57:40;7.13;;;6.72;;
27977;SDS011;15314;49.248;6.968;2023-03-23T03:58:41;6.97;;;6.57;;
27977;SDS011;15314;49.248;6.968;2023-03-23T03:59:43;7.22;;;6.68;;
27977;SDS011;15314;49.248;6.968;2023-03-23T04:00:44;7.15;;;6.75;;
27977;SDS011;15314;49.248;6.968;2023-03-23T04:01:48;7.80;;;6.97;;
27977;SDS011;15314;49.248;6.968;2023-03-23T04:02:53;6.93;;;6.43;;
27977;SDS011;15314;49.248;6.968;2023-03-23T04:03:54;7.43;;;6.97;;
27977;SDS011;15314;49.248;6.968;2023-03-23T04:04:56;7.15;;;6.75;;
27977;SDS011;15314;49.248;6.968;2023-03-23T04:05:57;6.82;;;6.43;;
27977;SDS011;15314;49.248;6.968;2023-03-23T04:06:59;7.30;;;6.70;;
27977;SDS011;15314;49.248;6.968;2023-03-23T04:08:02;6.78;;;6.47;;
27977;SDS011;15314;49.248;6.968;2023-03-23T04:09:04;7.22;;;6.63;;
27977;SDS011;15314;49.248;6.968;2023-03-23T04:10:06;7.07;;;6.65;;
27977;SDS011;15314;49.248;6.968;2023-03-23T04:11:09;7.05;;;6.57;;
27977;SDS011;15314;49.248;6.968;2023-03-23T04:12:11;7.05;;;6.50;;
27977;SDS011;15314;49.248;6.968;2023-03-23T04:13:12;6.88;;;6.47;;
27977;SDS011;15314;49.248;6.968;2023-03-23T04:14:13;7.32;;;6.75;;
27977;SDS011;15314;49.248;6.968;2023-03-23T04:15:14;6.68;;;6.30;;
27977;SDS011;15314;49.248;6.968;2023-03-23T04:16:15;7.28;;;6.88;;
27977;SDS011;15314;49.248;6.968;2023-03-23T04:17:17;6.70;;;6.30;;
27977;SDS011;15314;49.248;6.968;2023-03-23T04:18:18;7.53;;;7.00;;
27977;SDS011;15314;49.248;6.968;2023-03-23T04:19:20;7.03;;;6.45;;
27977;SDS011;15314;49.248;6.968;2023-03-23T04:20:22;7.10;;;6.60;;
27977;SDS011;15314;49.248;6.968;2023-03-23T04:21:25;7.72;;;7.13;;
27977;SDS011;15314;49.248;6.968;2023-03-23T04:22:28;7.57;;;6.95;;
27977;SDS011;15314;49.248;6.968;2023-03-23T04:23:32;6.85;;;6.35;;
27977;SDS011;15314;49.248;6.968;2023-03-23T04:24:33;7.00;;;6.57;;
27977;SDS011;15314;49.248;6.968;2023-03-23T04:25:35;7.43;;;7.03;;
27977;SDS011;15314;49.248;6.968;2023-03-23T04:26:36;7.72;;;7.00;;
27977;SDS011;15314;49.248;6.968;2023-03-23T04:27:37;7.72;;;7.22;;
27977;SDS011;15314;49.248;6.968;2023-03-23T04:28:39;7.57;;;7.18;;
27977;SDS011;15314;49.248;6.968;2023-03-23T04:29:41;7.93;;;7.43;;
27977;SDS011;15314;49.248;6.968;2023-03-23T04:30:42;7.95;;;7.30;;
27977;SDS011;15314;49.248;6.968;2023-03-23T04:31:43;7.93;;;7.30;;
27977;SDS011;15314;49.248;6.968;2023-03-23T04:32:45;7.93;;;7.25;;
27977;SDS011;15314;49.248;6.968;2023-03-23T04:33:46;7.97;;;7.28;;
27977;SDS011;15314;49.248;6.968;2023-03-23T04:34:47;7.63;;;7.03;;
27977;SDS011;15314;49.248;6.968;2023-03-23T04:35:48;8.25;;;7.38;;
27977;SDS011;15314;49.248;6.968;2023-03-23T04:36:49;7.70;;;7.20;;
27977;SDS011;15314;49.248;6.968;2023-03-23T04:37:50;7.88;;;7.40;;
27977;SDS011;15314;49.248;6.968;2023-03-23T04:38:51;7.85;;;7.40;;
27977;SDS011;15314;49.248;6.968;2023-03-23T04:39:55;8.15;;;7.55;;
27977;SDS011;15314;49.248;6.968;2023-03-23T04:41:02;7.60;;;7.13;;
27977;SDS011;15314;49.248;6.968;2023-03-23T04:42:03;7.72;;;7.32;;
27977;SDS011;15314;49.248;6.968;2023-03-23T04:43:05;7.90;;;7.30;;
27977;SDS011;15314;49.248;6.968;2023-03-23T04:44:06;8.07;;;7.43;;
27977;SDS011;15314;49.248;6.968;2023-03-23T04:45:07;7.78;;;7.18;;
27977;SDS011;15314;49.248;6.968;2023-03-23T04:46:08;8.00;;;7.50;;
27977;SDS011;15314;49.248;6.968;2023-03-23T04:47:10;7.60;;;7.13;;
27977;SDS011;15314;49.248;6.968;2023-03-23T04:48:12;7.82;;;7.32;;
27977;SDS011;15314;49.248;6.968;2023-03-23T04:49:13;8.73;;;8.13;;
27977;SDS011;15314;49.248;6.968;2023-03-23T04:50:21;8.40;;;7.80;;
27977;SDS011;15314;49.248;6.968;2023-03-23T04:51:25;8.80;;;7.95;;
27977;SDS011;15314;49.248;6.968;2023-03-23T04:52:28;8.80;;;8.13;;
27977;SDS011;15314;49.248;6.968;2023-03-23T04:53:29;8.73;;;8.07;;
27977;SDS011;15314;49.248;6.968;2023-03-23T04:54:30;8.32;;;7.75;;
27977;SDS011;15314;49.248;6.968;2023-03-23T04:55:32;8.30;;;7.63;;
27977;SDS011;15314;49.248;6.968;2023-03-23T04:56:37;8.50;;;7.90;;
27977;SDS011;15314;49.248;6.968;2023-03-23T04:57:38;9.13;;;8.40;;
27977;SDS011;15314;49.248;6.968;2023-03-23T04:58:40;8.70;;;7.95;;
27977;SDS011;15314;49.248;6.968;2023-03-23T04:59:41;8.52;;;7.80;;
27977;SDS011;15314;49.248;6.968;2023-03-23T05:00:43;7.78;;;6.97;;
27977;SDS011;15314;49.248;6.968;2023-03-23T05:01:49;8.90;;;7.60;;
27977;SDS011;15314;49.248;6.968;2023-03-23T05:02:50;7.72;;;7.13;;
27977;SDS011;15314;49.248;6.968;2023-03-23T05:03:51;8.02;;;7.38;;
27977;SDS011;15314;49.248;6.968;2023-03-23T05:04:52;8.88;;;7.93;;
27977;SDS011;15314;49.248;6.968;2023-03-23T05:05:53;7.38;;;6.88;;
27977;SDS011;15314;49.248;6.968;2023-03-23T05:06:54;7.72;;;7.20;;
27977;SDS011;15314;49.248;6.968;2023-03-23T05:07:56;8.07;;;7.28;;
27977;SDS011;15314;49.248;6.968;2023-03-23T05:08:57;8.07;;;7.57;;
27977;SDS011;15314;49.248;6.968;2023-03-23T05:09:58;8.68;;;7.95;;
27977;SDS011;15314;49.248;6.968;2023-03-23T05:10:59;8.65;;;8.05;;
27977;SDS011;15314;49.248;6.968;2023-03-23T05:12:07;7.07;;;6.65;;
27977;SDS011;15314;49.248;6.968;2023-03-23T05:13:09;8.60;;;7.90;;
27977;SDS011;15314;49.248;6.968;2023-03-23T05:14:11;8.95;;;8.05;;
27977;SDS011;15314;49.248;6.968;2023-03-23T05:15:13;7.45;;;6.95;;
27977;SDS011;15314;49.248;6.968;2023-03-23T05:16:15;8.05;;;7.50;;
27977;SDS011;15314;49.248;6.968;2023-03-23T05:17:16;7.45;;;6.95;;
27977;SDS011;15314;49.248;6.968;2023-03-23T05:18:18;8.25;;;7.75;;
27977;SDS011;15314;49.248;6.968;2023-03-23T05:19:20;7.63;;;7.13;;
27977;SDS011;15314;49.248;6.968;2023-03-23T05:20:21;7.85;;;7.20;;
27977;SDS011;15314;49.248;6.968;2023-03-23T05:21:21;7.32;;;6.80;;
27977;SDS011;15314;49.248;6.968;2023-03-23T05:22:22;7.65;;;7.07;;
27977;SDS011;15314;49.248;6.968;2023-03-23T05:23:23;8.10;;;7.50;;
27977;SDS011;15314;49.248;6.968;2023-03-23T05:24:24;8.85;;;7.90;;
27977;SDS011;15314;49.248;6.968;2023-03-23T05:25:25;8.32;;;7.72;;
27977;SDS011;15314;49.248;6.968;2023-03-23T05:26:26;8.45;;;7.65;;
27977;SDS011;15314;49.248;6.968;2023-03-23T05:27:31;7.97;;;7.47;;
27977;SDS011;15314;49.248;6.968;2023-03-23T05:28:34;7.80;;;7.38;;
27977;SDS011;15314;49.248;6.968;2023-03-23T05:29:36;8.13;;;7.53;;
27977;SDS011;15314;49.248;6.968;2023-03-23T05:30:37;8.65;;;8.05;;
27977;SDS011;15314;49.248;6.968;2023-03-23T05:31:38;7.63;;;7.22;;
27977;SDS011;15314;49.248;6.968;2023-03-23T05:32:40;7.97;;;7.47;;
27977;SDS011;15314;49.248;6.968;2023-03-23T05:33:40;7.55;;;7.05;;
27977;SDS011;15314;49.248;6.968;2023-03-23T05:34:41;7.90;;;7.30;;
27977;SDS011;15314;49.248;6.968;2023-03-23T05:35:43;8.23;;;7.60;;
27977;SDS011;15314;49.248;6.968;2023-03-23T05:36:45;8.40;;;7.53;;
27977;SDS011;15314;49.248;6.968;2023-03-23T05:37:47;6.78;;;6.38;;
27977;SDS011;15314;49.248;6.968;2023-03-23T05:38:47;7.85;;;7.22;;
27977;SDS011;15314;49.248;6.968;2023-03-23T05:39:49;6.90;;;6.50;;
27977;SDS011;15314;49.248;6.968;2023-03-23T05:40:53;7.40;;;6.80;;
27977;SDS011;15314;49.248;6.968;2023-03-23T05:41:54;7.45;;;7.05;;
27977;SDS011;15314;49.248;6.968;2023-03-23T05:42:55;7.72;;;7.28;;
27977;SDS011;15314;49.248;6.968;2023-03-23T05:43:58;7.35;;;6.93;;
27977;SDS011;15314;49.248;6.968;2023-03-23T05:44:59;8.48;;;7.65;;
27977;SDS011;15314;49.248;6.968;2023-03-23T05:46:01;7.95;;;7.45;;
27977;SDS011;15314;49.248;6.968;2023-03-23T05:47:03;8.30;;;7.57;;
27977;SDS011;15314;49.248;6.968;2023-03-23T05:48:03;8.50;;;7.78;;
27977;SDS011;15314;49.248;6.968;2023-03-23T05:49:04;7.65;;;7.18;;
27977;SDS011;15314;49.248;6.968;2023-03-23T05:50:06;7.43;;;6.95;;
27977;SDS011;15314;49.248;6.968;2023-03-23T05:51:09;7.55;;;7.15;;
27977;SDS011;15314;49.248;6.968;2023-03-23T05:52:10;7.38;;;6.88;;
27977;SDS011;15314;49.248;6.968;2023-03-23T05:53:10;8.18;;;7.57;;
27977;SDS011;15314;49.248;6.968;2023-03-23T05:54:12;7.95;;;7.45;;
27977;SDS011;15314;49.248;6.968;2023-03-23T05:55:14;7.78;;;7.28;;
27977;SDS011;15314;49.248;6.968;2023-03-23T05:56:15;7.57;;;7.00;;
27977;SDS011;15314;49.248;6.968;2023-03-23T05:57:15;7.10;;;6.72;;
27977;SDS011;15314;49.248;6.968;2023-03-23T05:58:16;7.70;;;7.18;;
27977;SDS011;15314;49.248;6.968;2023-03-23T05:59:17;7.53;;;7.13;;
27977;SDS011;15314;49.248;6.968;2023-03-23T06:00:18;7.13;;;6.72;;
27977;SDS011;15314;49.248;6.968;2023-03-23T06:01:20;7.45;;;7.05;;
27977;SDS011;15314;49.248;6.968;2023-03-23T06:02:20;7.60;;;7.00;;
27977;SDS011;15314;49.248;6.968;2023-03-23T06:03:23;7.32;;;6.90;;
27977;SDS011;15314;49.248;6.968;2023-03-23T06:04:24;7.90;;;7.40;;
27977;SDS011;15314;49.248;6.968;2023-03-23T06:05:25;8.52;;;7.78;;
27977;SDS011;15314;49.248;6.968;2023-03-23T06:06:26;8.25;;;7.55;;
27977;SDS011;15314;49.248;6.968;2023-03-23T06:07:27;7.93;;;7.35;;
27977;SDS011;15314;49.248;6.968;2023-03-23T06:08:27;9.15;;;8.25;;
27977;SDS011;15314;49.248;6.968;2023-03-23T06:09:28;8.20;;;7.60;;
27977;SDS011;15314;49.248;6.968;2023-03-23T06:10:30;8.40;;;7.80;;
27977;SDS011;15314;49.248;6.968;2023-03-23T06:11:33;8.80;;;8.05;;
27977;SDS011;15314;49.248;6.968;2023-03-23T06:12:37;7.90;;;7.30;;
27977;SDS011;15314;49.248;6.968;2023-03-23T06:13:40;8.38;;;7.70;;
27977;SDS011;15314;49.248;6.968;2023-03-23T06:14:41;8.65;;;8.15;;
27977;SDS011;15314;49.248;6.968;2023-03-23T06:15:42;8.02;;;7.40;;
27977;SDS011;15314;49.248;6.968;2023-03-23T06:16:43;8.40;;;7.90;;
27977;SDS011;15314;49.248;6.968;2023-03-23T06:17:44;7.85;;;7.45;;
27977;SDS011;15314;49.248;6.968;2023-03-23T06:18:45;8.13;;;7.35;;
27977;SDS011;15314;49.248;6.968;2023-03-23T06:19:46;7.80;;;7.38;;
27977;SDS011;15314;49.248;6.968;2023-03-23T06:20:48;7.68;;;7.13;;
27977;SDS011;15314;49.248;6.968;2023-03-23T06:21:50;7.45;;;6.85;;
27977;SDS011;15314;49.248;6.968;2023-03-23T06:22:51;7.20;;;6.80;;
27977;SDS011;15314;49.248;6.968;2023-03-23T06:23:54;8.55;;;8.02;;
27977;SDS011;15314;49.248;6.968;2023-03-23T06:24:55;8.90;;;8.27;;
27977;SDS011;15314;49.248;6.968;2023-03-23T06:26:00;8.40;;;7.90;;
27977;SDS011;15314;49.248;6.968;2023-03-23T06:27:05;9.18;;;8.57;;
27977;SDS011;15314;49.248;6.968;2023-03-23T06:28:06;8.73;;;8.23;;
27977;SDS011;15314;49.248;6.968;2023-03-23T06:29:07;8.70;;;8.10;;
27977;SDS011;15314;49.248;6.968;2023-03-23T06:30:11;8.70;;;8.20;;
27977;SDS011;15314;49.248;6.968;2023-03-23T06:31:14;8.40;;;8.00;;
27977;SDS011;15314;49.248;6.968;2023-03-23T06:32:17;8.52;;;7.88;;
27977;SDS011;15314;49.248;6.968;2023-03-23T06:33:18;8.80;;;8.27;;
27977;SDS011;15314;49.248;6.968;2023-03-23T06:34:19;8.05;;;7.72;;
27977;SDS011;15314;49.248;6.968;2023-03-23T06:35:23;8.63;;;8.10;;
27977;SDS011;15314;49.248;6.968;2023-03-23T06:36:25;9.07;;;8.48;;
27977;SDS011;15314;49.248;6.968;2023-03-23T06:37:27;8.95;;;8.25;;
27977;SDS011;15314;49.248;6.968;2023-03-23T06:38:28;8.15;;;7.55;;
27977;SDS011;15314;49.248;6.968;2023-03-23T06:39:30;7.93;;;7.50;;
27977;SDS011;15314;49.248;6.968;2023-03-23T06:40:30;8.20;;;7.68;;
27977;SDS011;15314;49.248;6.968;2023-03-23T06:41:31;8.35;;;7.68;;
27977;SDS011;15314;49.248;6.968;2023-03-23T06:42:32;8.35;;;7.85;;
27977;SDS011;15314;49.248;6.968;2023-03-23T06:43:33;8.20;;;7.65;;
27977;SDS011;15314;49.248;6.968;2023-03-23T06:44:38;8.77;;;8.10;;
27977;SDS011;15314;49.248;6.968;2023-03-23T06:45:38;8.20;;;7.50;;
27977;SDS011;15314;49.248;6.968;2023-03-23T06:46:39;8.20;;;7.63;;
27977;SDS011;15314;49.248;6.968;2023-03-23T06:47:41;8.02;;;7.63;;